sensor_id;sensor_type;location;lat;lon;timestamp;P1;durP1;ratioP1;P2;durP2;ratioP2
12908;SDS011;6522;49.622;6.126;2023-07-31T00:01:38;9.20;;;8.50;;
12908;SDS011;6522;49.622;6.126;2023-07-31T00:04:24;9.90;;;9.00;;
12908;SDS011;6522;49.622;6.126;2023-07-31T00:07:11;8.80;;;8.00;;
12908;SDS011;6522;49.622;6.126;2023-07-31T00:09:57;8.70;;;7.93;;
12908;SDS011;6522;49.622;6.126;2023-07-31T00:12:44;10.50;;;9.53;;
12908;SDS011;6522;49.622;6.126;2023-07-31T00:15:31;8.27;;;7.30;;
12908;SDS011;6522;49.622;6.126;2023-07-31T00:18:17;7.57;;;6.53;;
12908;SDS011;6522;49.622;6.126;2023-07-31T00:21:04;8.15;;;7.45;;
12908;SDS011;6522;49.622;6.126;2023-07-31T00:23:51;8.90;;;8.27;;
12908;SDS011;6522;49.622;6.126;2023-07-31T00:26:38;8.25;;;7.55;;
12908;SDS011;6522;49.622;6.126;2023-07-31T00:29:24;7.90;;;7.10;;
12908;SDS011;6522;49.622;6.126;2023-07-31T00:32:11;9.73;;;8.83;;
12908;SDS011;6522;49.622;6.126;2023-07-31T00:34:58;7.80;;;6.90;;
12908;SDS011;6522;49.622;6.126;2023-07-31T00:37:44;10.30;;;7.00;;
12908;SDS011;6522;49.622;6.126;2023-07-31T00:40:35;7.90;;;7.10;;
12908;SDS011;6522;49.622;6.126;2023-07-31T00:43:18;8.90;;;8.20;;
12908;SDS011;6522;49.622;6.126;2023-07-31T00:46:05;7.70;;;6.77;;
12908;SDS011;6522;49.622;6.126;2023-07-31T00:48:51;8.52;;;6.57;;
12908;SDS011;6522;49.622;6.126;2023-07-31T00:51:38;8.37;;;7.87;;
12908;SDS011;6522;49.622;6.126;2023-07-31T00:54:25;7.85;;;7.10;;
12908;SDS011;6522;49.622;6.126;2023-07-31T00:57:11;8.18;;;7.15;;
12908;SDS011;6522;49.622;6.126;2023-07-31T00:59:58;7.72;;;7.03;;
12908;SDS011;6522;49.622;6.126;2023-07-31T01:02:44;9.37;;;8.57;;
12908;SDS011;6522;49.622;6.126;2023-07-31T01:08:40;8.38;;;7.50;;
12908;SDS011;6522;49.622;6.126;2023-07-31T01:11:33;9.60;;;8.83;;
12908;SDS011;6522;49.622;6.126;2023-07-31T01:14:20;7.80;;;7.10;;
12908;SDS011;6522;49.622;6.126;2023-07-31T01:17:07;8.27;;;7.18;;
12908;SDS011;6522;49.622;6.126;2023-07-31T01:19:54;9.53;;;8.23;;
12908;SDS011;6522;49.622;6.126;2023-07-31T01:28:24;7.43;;;6.70;;
12908;SDS011;6522;49.622;6.126;2023-07-31T01:31:10;8.10;;;7.30;;
12908;SDS011;6522;49.622;6.126;2023-07-31T01:33:57;7.30;;;6.30;;
12908;SDS011;6522;49.622;6.126;2023-07-31T01:36:43;6.33;;;5.73;;
12908;SDS011;6522;49.622;6.126;2023-07-31T01:39:29;9.13;;;7.10;;
12908;SDS011;6522;49.622;6.126;2023-07-31T01:42:16;7.90;;;7.30;;
12908;SDS011;6522;49.622;6.126;2023-07-31T01:45:03;6.68;;;5.97;;
12908;SDS011;6522;49.622;6.126;2023-07-31T01:47:50;7.97;;;7.22;;
12908;SDS011;6522;49.622;6.126;2023-07-31T01:50:36;9.30;;;7.27;;
12908;SDS011;6522;49.622;6.126;2023-07-31T01:53:23;8.48;;;6.10;;
12908;SDS011;6522;49.622;6.126;2023-07-31T01:56:10;7.23;;;6.63;;
12908;SDS011;6522;49.622;6.126;2023-07-31T01:58:57;7.95;;;5.60;;
12908;SDS011;6522;49.622;6.126;2023-07-31T02:01:44;7.87;;;7.27;;
12908;SDS011;6522;49.622;6.126;2023-07-31T02:04:31;6.50;;;5.80;;
12908;SDS011;6522;49.622;6.126;2023-07-31T02:07:18;7.33;;;6.83;;
12908;SDS011;6522;49.622;6.126;2023-07-31T02:10:05;7.70;;;6.28;;
12908;SDS011;6522;49.622;6.126;2023-07-31T02:12:52;8.20;;;7.63;;
12908;SDS011;6522;49.622;6.126;2023-07-31T02:15:39;7.30;;;6.10;;
12908;SDS011;6522;49.622;6.126;2023-07-31T02:18:26;8.90;;;8.00;;
12908;SDS011;6522;49.622;6.126;2023-07-31T02:21:13;7.78;;;6.47;;
12908;SDS011;6522;49.622;6.126;2023-07-31T02:23:59;8.20;;;6.60;;
12908;SDS011;6522;49.622;6.126;2023-07-31T02:26:46;9.10;;;8.40;;
12908;SDS011;6522;49.622;6.126;2023-07-31T02:29:33;8.40;;;6.87;;
12908;SDS011;6522;49.622;6.126;2023-07-31T02:32:20;9.05;;;8.25;;
12908;SDS011;6522;49.622;6.126;2023-07-31T02:35:07;8.77;;;8.17;;
12908;SDS011;6522;49.622;6.126;2023-07-31T02:37:53;6.32;;;5.72;;
12908;SDS011;6522;49.622;6.126;2023-07-31T02:40:40;10.13;;;7.93;;
12908;SDS011;6522;49.622;6.126;2023-07-31T02:43:29;9.30;;;8.50;;
12908;SDS011;6522;49.622;6.126;2023-07-31T02:46:16;8.18;;;7.37;;
12908;SDS011;6522;49.622;6.126;2023-07-31T02:49:03;8.50;;;7.57;;
12908;SDS011;6522;49.622;6.126;2023-07-31T02:51:50;11.30;;;7.50;;
12908;SDS011;6522;49.622;6.126;2023-07-31T02:54:37;11.90;;;7.30;;
12908;SDS011;6522;49.622;6.126;2023-07-31T02:57:24;7.68;;;7.07;;
12908;SDS011;6522;49.622;6.126;2023-07-31T03:00:11;12.30;;;7.68;;
12908;SDS011;6522;49.622;6.126;2023-07-31T03:02:58;8.27;;;7.57;;
12908;SDS011;6522;49.622;6.126;2023-07-31T03:05:44;8.38;;;7.45;;
12908;SDS011;6522;49.622;6.126;2023-07-31T03:08:31;7.53;;;6.37;;
12908;SDS011;6522;49.622;6.126;2023-07-31T03:11:18;9.03;;;7.73;;
12908;SDS011;6522;49.622;6.126;2023-07-31T03:14:04;7.93;;;7.13;;
12908;SDS011;6522;49.622;6.126;2023-07-31T03:16:52;11.98;;;8.50;;
12908;SDS011;6522;49.622;6.126;2023-07-31T03:19:38;11.55;;;8.40;;
12908;SDS011;6522;49.622;6.126;2023-07-31T03:22:25;8.82;;;7.93;;
12908;SDS011;6522;49.622;6.126;2023-07-31T03:25:11;9.10;;;7.93;;
12908;SDS011;6522;49.622;6.126;2023-07-31T03:27:58;7.93;;;7.22;;
12908;SDS011;6522;49.622;6.126;2023-07-31T03:30:45;8.45;;;6.90;;
12908;SDS011;6522;49.622;6.126;2023-07-31T03:33:32;11.10;;;7.30;;
12908;SDS011;6522;49.622;6.126;2023-07-31T03:36:19;8.32;;;7.53;;
12908;SDS011;6522;49.622;6.126;2023-07-31T03:39:05;17.87;;;9.70;;
12908;SDS011;6522;49.622;6.126;2023-07-31T03:41:52;10.63;;;7.85;;
12908;SDS011;6522;49.622;6.126;2023-07-31T03:44:38;7.65;;;7.15;;
12908;SDS011;6522;49.622;6.126;2023-07-31T03:47:25;8.05;;;7.35;;
12908;SDS011;6522;49.622;6.126;2023-07-31T03:50:12;9.80;;;7.20;;
12908;SDS011;6522;49.622;6.126;2023-07-31T03:52:59;8.43;;;7.55;;
12908;SDS011;6522;49.622;6.126;2023-07-31T03:55:46;9.38;;;8.10;;
12908;SDS011;6522;49.622;6.126;2023-07-31T03:58:33;7.60;;;6.90;;
12908;SDS011;6522;49.622;6.126;2023-07-31T04:01:19;8.82;;;8.00;;
12908;SDS011;6522;49.622;6.126;2023-07-31T04:04:06;9.25;;;7.97;;
12908;SDS011;6522;49.622;6.126;2023-07-31T04:06:53;8.32;;;7.53;;
12908;SDS011;6522;49.622;6.126;2023-07-31T04:09:40;10.25;;;7.35;;
12908;SDS011;6522;49.622;6.126;2023-07-31T04:12:27;8.00;;;7.20;;
12908;SDS011;6522;49.622;6.126;2023-07-31T04:15:14;10.32;;;8.20;;
12908;SDS011;6522;49.622;6.126;2023-07-31T04:18:01;8.73;;;7.97;;
12908;SDS011;6522;49.622;6.126;2023-07-31T04:20:47;9.45;;;8.20;;
12908;SDS011;6522;49.622;6.126;2023-07-31T04:23:34;12.10;;;7.37;;
12908;SDS011;6522;49.622;6.126;2023-07-31T04:26:20;9.30;;;8.60;;
12908;SDS011;6522;49.622;6.126;2023-07-31T04:29:07;13.13;;;8.43;;
12908;SDS011;6522;49.622;6.126;2023-07-31T04:31:54;8.05;;;7.30;;
12908;SDS011;6522;49.622;6.126;2023-07-31T04:34:40;9.07;;;6.85;;
12908;SDS011;6522;49.622;6.126;2023-07-31T04:37:27;11.48;;;8.30;;
12908;SDS011;6522;49.622;6.126;2023-07-31T04:40:14;12.18;;;8.32;;
12908;SDS011;6522;49.622;6.126;2023-07-31T04:43:00;8.38;;;7.78;;
12908;SDS011;6522;49.622;6.126;2023-07-31T04:45:47;11.52;;;7.55;;
12908;SDS011;6522;49.622;6.126;2023-07-31T04:48:34;8.27;;;7.25;;
12908;SDS011;6522;49.622;6.126;2023-07-31T04:51:20;7.78;;;7.07;;
12908;SDS011;6522;49.622;6.126;2023-07-31T04:54:07;7.72;;;7.10;;
12908;SDS011;6522;49.622;6.126;2023-07-31T04:56:54;7.72;;;6.75;;
12908;SDS011;6522;49.622;6.126;2023-07-31T04:59:41;8.65;;;7.57;;
12908;SDS011;6522;49.622;6.126;2023-07-31T05:02:27;8.50;;;7.60;;
12908;SDS011;6522;49.622;6.126;2023-07-31T05:05:14;7.18;;;6.55;;
12908;SDS011;6522;49.622;6.126;2023-07-31T05:08:01;7.78;;;7.07;;
12908;SDS011;6522;49.622;6.126;2023-07-31T05:10:47;9.10;;;6.60;;
12908;SDS011;6522;49.622;6.126;2023-07-31T05:13:34;8.95;;;6.85;;
12908;SDS011;6522;49.622;6.126;2023-07-31T05:16:21;6.97;;;6.28;;
12908;SDS011;6522;49.622;6.126;2023-07-31T05:19:07;6.57;;;5.87;;
12908;SDS011;6522;49.622;6.126;2023-07-31T05:21:54;8.00;;;7.20;;
12908;SDS011;6522;49.622;6.126;2023-07-31T05:24:41;6.85;;;6.30;;
12908;SDS011;6522;49.622;6.126;2023-07-31T05:27:28;8.48;;;6.93;;
12908;SDS011;6522;49.622;6.126;2023-07-31T05:30:14;7.97;;;7.00;;
12908;SDS011;6522;49.622;6.126;2023-07-31T05:33:01;7.05;;;5.97;;
12908;SDS011;6522;49.622;6.126;2023-07-31T05:35:48;10.57;;;7.20;;
12908;SDS011;6522;49.622;6.126;2023-07-31T05:38:34;8.55;;;7.60;;
12908;SDS011;6522;49.622;6.126;2023-07-31T05:41:22;9.63;;;7.05;;
12908;SDS011;6522;49.622;6.126;2023-07-31T05:44:08;7.80;;;7.00;;
12908;SDS011;6522;49.622;6.126;2023-07-31T05:46:55;8.40;;;7.57;;
12908;SDS011;6522;49.622;6.126;2023-07-31T05:49:42;9.63;;;7.75;;
12908;SDS011;6522;49.622;6.126;2023-07-31T05:52:28;8.05;;;7.35;;
12908;SDS011;6522;49.622;6.126;2023-07-31T05:55:15;8.18;;;7.37;;
12908;SDS011;6522;49.622;6.126;2023-07-31T05:58:02;9.18;;;8.35;;
12908;SDS011;6522;49.622;6.126;2023-07-31T06:00:48;6.93;;;6.32;;
12908;SDS011;6522;49.622;6.126;2023-07-31T06:03:35;8.77;;;7.87;;
12908;SDS011;6522;49.622;6.126;2023-07-31T06:06:22;8.85;;;6.70;;
12908;SDS011;6522;49.622;6.126;2023-07-31T06:09:09;8.73;;;8.07;;
12908;SDS011;6522;49.622;6.126;2023-07-31T06:11:56;9.88;;;7.40;;
12908;SDS011;6522;49.622;6.126;2023-07-31T06:14:43;9.93;;;8.97;;
12908;SDS011;6522;49.622;6.126;2023-07-31T06:17:29;10.98;;;7.20;;
12908;SDS011;6522;49.622;6.126;2023-07-31T06:20:17;8.80;;;7.90;;
12908;SDS011;6522;49.622;6.126;2023-07-31T06:23:03;10.07;;;9.27;;
12908;SDS011;6522;49.622;6.126;2023-07-31T06:25:50;8.63;;;7.93;;
12908;SDS011;6522;49.622;6.126;2023-07-31T06:28:37;8.25;;;7.45;;
12908;SDS011;6522;49.622;6.126;2023-07-31T06:31:24;9.90;;;9.00;;
12908;SDS011;6522;49.622;6.126;2023-07-31T06:34:10;8.77;;;7.93;;
12908;SDS011;6522;49.622;6.126;2023-07-31T06:36:57;9.13;;;8.05;;
12908;SDS011;6522;49.622;6.126;2023-07-31T06:39:44;11.00;;;10.20;;
12908;SDS011;6522;49.622;6.126;2023-07-31T06:42:31;9.38;;;8.48;;
12908;SDS011;6522;49.622;6.126;2023-07-31T06:45:18;10.23;;;8.40;;
12908;SDS011;6522;49.622;6.126;2023-07-31T06:48:05;9.67;;;8.90;;
12908;SDS011;6522;49.622;6.126;2023-07-31T06:50:52;9.10;;;8.20;;
12908;SDS011;6522;49.622;6.126;2023-07-31T06:53:39;8.40;;;7.60;;
12908;SDS011;6522;49.622;6.126;2023-07-31T06:56:26;10.20;;;9.20;;
12908;SDS011;6522;49.622;6.126;2023-07-31T06:59:13;8.25;;;7.50;;
12908;SDS011;6522;49.622;6.126;2023-07-31T07:02:00;8.48;;;7.78;;
12908;SDS011;6522;49.622;6.126;2023-07-31T07:04:47;11.40;;;8.10;;
12908;SDS011;6522;49.622;6.126;2023-07-31T07:07:33;11.30;;;10.40;;
12908;SDS011;6522;49.622;6.126;2023-07-31T07:10:20;9.63;;;8.63;;
12908;SDS011;6522;49.622;6.126;2023-07-31T07:13:07;9.93;;;9.13;;
12908;SDS011;6522;49.622;6.126;2023-07-31T07:15:53;11.37;;;10.57;;
12908;SDS011;6522;49.622;6.126;2023-07-31T07:18:40;9.27;;;8.50;;
12908;SDS011;6522;49.622;6.126;2023-07-31T07:21:27;10.27;;;9.38;;
12908;SDS011;6522;49.622;6.126;2023-07-31T07:24:14;11.73;;;10.70;;
12908;SDS011;6522;49.622;6.126;2023-07-31T07:27:01;10.02;;;9.25;;
12908;SDS011;6522;49.622;6.126;2023-07-31T07:29:49;10.70;;;9.80;;
12908;SDS011;6522;49.622;6.126;2023-07-31T07:32:34;11.80;;;11.00;;
12908;SDS011;6522;49.622;6.126;2023-07-31T07:35:21;11.00;;;9.80;;
12908;SDS011;6522;49.622;6.126;2023-07-31T07:38:08;10.52;;;9.63;;
12908;SDS011;6522;49.622;6.126;2023-07-31T07:40:54;12.20;;;11.40;;
12908;SDS011;6522;49.622;6.126;2023-07-31T07:43:41;10.40;;;9.60;;
12908;SDS011;6522;49.622;6.126;2023-07-31T07:46:28;10.20;;;9.40;;
12908;SDS011;6522;49.622;6.126;2023-07-31T07:49:15;11.63;;;10.93;;
12908;SDS011;6522;49.622;6.126;2023-07-31T07:52:02;11.02;;;10.18;;
12908;SDS011;6522;49.622;6.126;2023-07-31T07:54:49;10.45;;;9.65;;
12908;SDS011;6522;49.622;6.126;2023-07-31T07:57:36;13.17;;;12.30;;
12908;SDS011;6522;49.622;6.126;2023-07-31T08:00:23;11.10;;;10.20;;
12908;SDS011;6522;49.622;6.126;2023-07-31T08:03:09;12.50;;;11.60;;
12908;SDS011;6522;49.622;6.126;2023-07-31T08:05:59;13.90;;;13.10;;
12908;SDS011;6522;49.622;6.126;2023-07-31T08:08:46;12.27;;;11.38;;
12908;SDS011;6522;49.622;6.126;2023-07-31T08:11:32;12.30;;;11.50;;
12908;SDS011;6522;49.622;6.126;2023-07-31T08:14:19;13.83;;;13.03;;
12908;SDS011;6522;49.622;6.126;2023-07-31T08:17:06;12.63;;;11.67;;
12908;SDS011;6522;49.622;6.126;2023-07-31T08:19:53;12.23;;;11.30;;
12908;SDS011;6522;49.622;6.126;2023-07-31T08:22:40;14.63;;;13.83;;
12908;SDS011;6522;49.622;6.126;2023-07-31T08:25:26;12.53;;;11.73;;
12908;SDS011;6522;49.622;6.126;2023-07-31T08:28:13;12.30;;;11.50;;
12908;SDS011;6522;49.622;6.126;2023-07-31T08:30:59;15.20;;;14.20;;
12908;SDS011;6522;49.622;6.126;2023-07-31T08:33:46;12.37;;;11.55;;
12908;SDS011;6522;49.622;6.126;2023-07-31T08:36:33;11.33;;;10.70;;
12908;SDS011;6522;49.622;6.126;2023-07-31T08:39:21;14.43;;;13.33;;
12908;SDS011;6522;49.622;6.126;2023-07-31T08:42:08;12.30;;;11.40;;
12908;SDS011;6522;49.622;6.126;2023-07-31T08:44:54;11.70;;;11.00;;
12908;SDS011;6522;49.622;6.126;2023-07-31T08:47:48;13.67;;;12.97;;
12908;SDS011;6522;49.622;6.126;2023-07-31T08:50:34;11.10;;;10.48;;
12908;SDS011;6522;49.622;6.126;2023-07-31T08:53:21;11.12;;;10.43;;
12908;SDS011;6522;49.622;6.126;2023-07-31T08:56:07;14.30;;;13.40;;
12908;SDS011;6522;49.622;6.126;2023-07-31T08:58:54;11.30;;;10.70;;
12908;SDS011;6522;49.622;6.126;2023-07-31T09:01:42;12.02;;;11.25;;
12908;SDS011;6522;49.622;6.126;2023-07-31T09:04:27;15.00;;;13.97;;
12908;SDS011;6522;49.622;6.126;2023-07-31T09:07:14;11.73;;;10.82;;
12908;SDS011;6522;49.622;6.126;2023-07-31T09:10:01;11.12;;;10.52;;
12908;SDS011;6522;49.622;6.126;2023-07-31T09:12:48;14.07;;;13.30;;
12908;SDS011;6522;49.622;6.126;2023-07-31T09:15:35;12.33;;;11.63;;
12908;SDS011;6522;49.622;6.126;2023-07-31T09:18:22;12.30;;;11.60;;
12908;SDS011;6522;49.622;6.126;2023-07-31T09:21:08;13.05;;;12.25;;
12908;SDS011;6522;49.622;6.126;2023-07-31T09:23:55;14.37;;;13.60;;
12908;SDS011;6522;49.622;6.126;2023-07-31T09:26:42;13.00;;;12.10;;
12908;SDS011;6522;49.622;6.126;2023-07-31T09:29:28;12.95;;;11.95;;
12908;SDS011;6522;49.622;6.126;2023-07-31T09:32:16;15.13;;;14.43;;
12908;SDS011;6522;49.622;6.126;2023-07-31T09:35:12;12.80;;;12.00;;
12908;SDS011;6522;49.622;6.126;2023-07-31T09:37:53;12.50;;;11.70;;
12908;SDS011;6522;49.622;6.126;2023-07-31T09:40:40;13.93;;;13.23;;
12908;SDS011;6522;49.622;6.126;2023-07-31T09:43:26;12.10;;;11.40;;
12908;SDS011;6522;49.622;6.126;2023-07-31T09:46:13;12.70;;;11.93;;
12908;SDS011;6522;49.622;6.126;2023-07-31T09:49:06;13.37;;;12.77;;
12908;SDS011;6522;49.622;6.126;2023-07-31T09:51:52;11.85;;;11.15;;
12908;SDS011;6522;49.622;6.126;2023-07-31T09:54:39;11.70;;;10.80;;
12908;SDS011;6522;49.622;6.126;2023-07-31T09:57:26;13.90;;;13.13;;
12908;SDS011;6522;49.622;6.126;2023-07-31T10:00:13;12.00;;;11.30;;
12908;SDS011;6522;49.622;6.126;2023-07-31T10:03:00;11.80;;;11.00;;
12908;SDS011;6522;49.622;6.126;2023-07-31T10:05:47;13.50;;;12.80;;
12908;SDS011;6522;49.622;6.126;2023-07-31T10:08:33;10.48;;;9.88;;
12908;SDS011;6522;49.622;6.126;2023-07-31T10:11:19;10.07;;;9.45;;
12908;SDS011;6522;49.622;6.126;2023-07-31T10:14:06;11.00;;;10.50;;
12908;SDS011;6522;49.622;6.126;2023-07-31T10:16:52;10.30;;;9.50;;
12908;SDS011;6522;49.622;6.126;2023-07-31T10:19:39;10.90;;;10.00;;
12908;SDS011;6522;49.622;6.126;2023-07-31T10:22:26;11.20;;;10.60;;
12908;SDS011;6522;49.622;6.126;2023-07-31T10:25:12;9.70;;;8.90;;
12908;SDS011;6522;49.622;6.126;2023-07-31T10:27:59;9.25;;;8.55;;
12908;SDS011;6522;49.622;6.126;2023-07-31T10:30:46;10.50;;;9.83;;
12908;SDS011;6522;49.622;6.126;2023-07-31T10:33:33;8.90;;;8.20;;
12908;SDS011;6522;49.622;6.126;2023-07-31T10:36:20;9.07;;;8.50;;
12908;SDS011;6522;49.622;6.126;2023-07-31T10:39:34;9.50;;;8.80;;
12908;SDS011;6522;49.622;6.126;2023-07-31T10:41:53;10.67;;;10.00;;
12908;SDS011;6522;49.622;6.126;2023-07-31T10:44:44;8.93;;;8.13;;
12908;SDS011;6522;49.622;6.126;2023-07-31T10:47:30;8.50;;;8.00;;
12908;SDS011;6522;49.622;6.126;2023-07-31T10:50:18;11.20;;;10.23;;
12908;SDS011;6522;49.622;6.126;2023-07-31T10:53:04;8.75;;;8.05;;
12908;SDS011;6522;49.622;6.126;2023-07-31T10:55:51;8.83;;;7.97;;
12908;SDS011;6522;49.622;6.126;2023-07-31T10:58:38;10.57;;;9.77;;
12908;SDS011;6522;49.622;6.126;2023-07-31T11:01:24;8.90;;;8.10;;
12908;SDS011;6522;49.622;6.126;2023-07-31T11:04:11;8.60;;;7.90;;
12908;SDS011;6522;49.622;6.126;2023-07-31T11:07:01;11.27;;;10.27;;
12908;SDS011;6522;49.622;6.126;2023-07-31T11:09:47;9.00;;;8.20;;
12908;SDS011;6522;49.622;6.126;2023-07-31T11:12:34;11.57;;;10.77;;
12908;SDS011;6522;49.622;6.126;2023-07-31T11:15:21;8.90;;;8.30;;
12908;SDS011;6522;49.622;6.126;2023-07-31T11:18:08;9.48;;;8.68;;
12908;SDS011;6522;49.622;6.126;2023-07-31T11:20:56;12.33;;;11.63;;
12908;SDS011;6522;49.622;6.126;2023-07-31T11:23:45;9.30;;;8.40;;
12908;SDS011;6522;49.622;6.126;2023-07-31T11:26:32;10.30;;;9.55;;
12908;SDS011;6522;49.622;6.126;2023-07-31T11:29:19;11.37;;;10.37;;
12908;SDS011;6522;49.622;6.126;2023-07-31T11:32:05;8.48;;;7.87;;
12908;SDS011;6522;49.622;6.126;2023-07-31T11:34:53;9.10;;;8.30;;
12908;SDS011;6522;49.622;6.126;2023-07-31T11:37:40;8.43;;;7.73;;
12908;SDS011;6522;49.622;6.126;2023-07-31T11:40:26;9.60;;;8.90;;
12908;SDS011;6522;49.622;6.126;2023-07-31T11:43:17;8.55;;;7.75;;
12908;SDS011;6522;49.622;6.126;2023-07-31T11:46:03;8.18;;;7.40;;
12908;SDS011;6522;49.622;6.126;2023-07-31T11:48:49;10.10;;;9.40;;
12908;SDS011;6522;49.622;6.126;2023-07-31T11:51:36;7.60;;;6.30;;
12908;SDS011;6522;49.622;6.126;2023-07-31T11:54:23;8.70;;;6.25;;
12908;SDS011;6522;49.622;6.126;2023-07-31T11:57:09;6.22;;;5.72;;
12908;SDS011;6522;49.622;6.126;2023-07-31T11:59:56;6.43;;;5.93;;
12908;SDS011;6522;49.622;6.126;2023-07-31T12:02:43;8.57;;;7.78;;
12908;SDS011;6522;49.622;6.126;2023-07-31T12:05:30;7.05;;;6.50;;
12908;SDS011;6522;49.622;6.126;2023-07-31T12:08:16;7.20;;;6.60;;
12908;SDS011;6522;49.622;6.126;2023-07-31T12:11:04;7.28;;;6.57;;
12908;SDS011;6522;49.622;6.126;2023-07-31T12:13:50;7.00;;;6.40;;
12908;SDS011;6522;49.622;6.126;2023-07-31T12:16:37;9.48;;;6.75;;
12908;SDS011;6522;49.622;6.126;2023-07-31T12:19:24;7.35;;;6.25;;
12908;SDS011;6522;49.622;6.126;2023-07-31T12:22:11;7.55;;;6.47;;
12908;SDS011;6522;49.622;6.126;2023-07-31T12:24:57;6.60;;;5.90;;
12908;SDS011;6522;49.622;6.126;2023-07-31T12:27:45;7.85;;;6.82;;
12908;SDS011;6522;49.622;6.126;2023-07-31T12:30:34;8.63;;;7.50;;
12908;SDS011;6522;49.622;6.126;2023-07-31T12:33:21;7.65;;;7.05;;
12908;SDS011;6522;49.622;6.126;2023-07-31T12:36:12;7.50;;;6.05;;
12908;SDS011;6522;49.622;6.126;2023-07-31T12:38:55;7.03;;;6.32;;
12908;SDS011;6522;49.622;6.126;2023-07-31T12:41:41;8.83;;;6.40;;
12908;SDS011;6522;49.622;6.126;2023-07-31T12:44:28;11.80;;;7.17;;
12908;SDS011;6522;49.622;6.126;2023-07-31T12:47:15;7.12;;;6.35;;
12908;SDS011;6522;49.622;6.126;2023-07-31T12:50:02;8.90;;;8.03;;
12908;SDS011;6522;49.622;6.126;2023-07-31T12:52:49;8.18;;;7.28;;
12908;SDS011;6522;49.622;6.126;2023-07-31T12:55:36;8.82;;;7.93;;
12908;SDS011;6522;49.622;6.126;2023-07-31T12:58:23;8.70;;;8.00;;
12908;SDS011;6522;49.622;6.126;2023-07-31T13:01:10;9.23;;;8.53;;
12908;SDS011;6522;49.622;6.126;2023-07-31T13:03:56;8.30;;;7.40;;
12908;SDS011;6522;49.622;6.126;2023-07-31T13:06:43;8.27;;;7.45;;
12908;SDS011;6522;49.622;6.126;2023-07-31T13:09:30;15.10;;;8.77;;
12908;SDS011;6522;49.622;6.126;2023-07-31T13:12:17;8.60;;;7.90;;
12908;SDS011;6522;49.622;6.126;2023-07-31T13:15:04;8.65;;;7.93;;
12908;SDS011;6522;49.622;6.126;2023-07-31T13:17:51;10.60;;;9.80;;
12908;SDS011;6522;49.622;6.126;2023-07-31T13:20:37;8.63;;;7.90;;
12908;SDS011;6522;49.622;6.126;2023-07-31T13:23:24;8.55;;;7.85;;
12908;SDS011;6522;49.622;6.126;2023-07-31T13:26:11;10.40;;;9.60;;
12908;SDS011;6522;49.622;6.126;2023-07-31T13:28:58;8.82;;;8.02;;
12908;SDS011;6522;49.622;6.126;2023-07-31T13:31:45;9.00;;;8.10;;
12908;SDS011;6522;49.622;6.126;2023-07-31T13:34:31;9.50;;;8.80;;
12908;SDS011;6522;49.622;6.126;2023-07-31T13:37:18;8.57;;;7.30;;
12908;SDS011;6522;49.622;6.126;2023-07-31T13:40:05;9.32;;;8.43;;
12908;SDS011;6522;49.622;6.126;2023-07-31T13:42:52;11.73;;;10.67;;
12908;SDS011;6522;49.622;6.126;2023-07-31T13:45:39;11.70;;;10.70;;
12908;SDS011;6522;49.622;6.126;2023-07-31T13:48:26;11.75;;;10.73;;
12908;SDS011;6522;49.622;6.126;2023-07-31T13:51:13;13.63;;;12.40;;
12908;SDS011;6522;49.622;6.126;2023-07-31T13:54:00;13.18;;;12.00;;
12908;SDS011;6522;49.622;6.126;2023-07-31T13:56:47;12.90;;;11.90;;
12908;SDS011;6522;49.622;6.126;2023-07-31T13:59:33;13.40;;;12.30;;
12908;SDS011;6522;49.622;6.126;2023-07-31T14:02:20;13.40;;;12.40;;
12908;SDS011;6522;49.622;6.126;2023-07-31T14:05:07;11.52;;;10.52;;
12908;SDS011;6522;49.622;6.126;2023-07-31T14:07:53;11.18;;;10.18;;
12908;SDS011;6522;49.622;6.126;2023-07-31T14:10:40;11.33;;;10.53;;
12908;SDS011;6522;49.622;6.126;2023-07-31T14:13:27;9.45;;;8.55;;
12908;SDS011;6522;49.622;6.126;2023-07-31T14:16:13;9.15;;;8.25;;
12908;SDS011;6522;49.622;6.126;2023-07-31T14:19:00;9.47;;;8.70;;
12908;SDS011;6522;49.622;6.126;2023-07-31T14:21:47;10.35;;;7.10;;
12908;SDS011;6522;49.622;6.126;2023-07-31T14:24:34;8.52;;;7.37;;
12908;SDS011;6522;49.622;6.126;2023-07-31T14:27:21;9.20;;;7.90;;
12908;SDS011;6522;49.622;6.126;2023-07-31T14:30:08;8.00;;;6.50;;
12908;SDS011;6522;49.622;6.126;2023-07-31T14:32:55;8.52;;;6.50;;
12908;SDS011;6522;49.622;6.126;2023-07-31T14:35:42;10.40;;;7.20;;
12908;SDS011;6522;49.622;6.126;2023-07-31T14:38:29;9.73;;;5.90;;
12908;SDS011;6522;49.622;6.126;2023-07-31T14:41:16;10.38;;;6.25;;
12908;SDS011;6522;49.622;6.126;2023-07-31T14:44:02;8.13;;;7.33;;
12908;SDS011;6522;49.622;6.126;2023-07-31T14:46:49;11.02;;;6.60;;
12908;SDS011;6522;49.622;6.126;2023-07-31T14:49:36;10.00;;;7.85;;
12908;SDS011;6522;49.622;6.126;2023-07-31T14:52:23;10.73;;;8.47;;
12908;SDS011;6522;49.622;6.126;2023-07-31T14:55:10;10.40;;;7.90;;
12908;SDS011;6522;49.622;6.126;2023-07-31T14:57:57;9.00;;;8.07;;
12908;SDS011;6522;49.622;6.126;2023-07-31T15:00:44;9.57;;;7.78;;
12908;SDS011;6522;49.622;6.126;2023-07-31T15:03:31;9.70;;;7.90;;
12908;SDS011;6522;49.622;6.126;2023-07-31T15:06:18;9.70;;;8.70;;
12908;SDS011;6522;49.622;6.126;2023-07-31T15:09:05;9.57;;;7.97;;
12908;SDS011;6522;49.622;6.126;2023-07-31T15:11:52;8.65;;;7.20;;
12908;SDS011;6522;49.622;6.126;2023-07-31T15:14:39;11.73;;;9.00;;
12908;SDS011;6522;49.622;6.126;2023-07-31T15:17:26;10.98;;;7.85;;
12908;SDS011;6522;49.622;6.126;2023-07-31T15:20:12;12.20;;;8.00;;
12908;SDS011;6522;49.622;6.126;2023-07-31T15:22:59;9.57;;;6.97;;
12908;SDS011;6522;49.622;6.126;2023-07-31T15:25:46;9.70;;;8.30;;
12908;SDS011;6522;49.622;6.126;2023-07-31T15:28:32;10.25;;;7.85;;
12908;SDS011;6522;49.622;6.126;2023-07-31T15:31:19;12.53;;;9.03;;
12908;SDS011;6522;49.622;6.126;2023-07-31T15:34:06;9.88;;;7.90;;
12908;SDS011;6522;49.622;6.126;2023-07-31T15:36:53;9.95;;;8.25;;
12908;SDS011;6522;49.622;6.126;2023-07-31T15:39:40;12.30;;;9.17;;
12908;SDS011;6522;49.622;6.126;2023-07-31T15:42:26;10.73;;;8.40;;
12908;SDS011;6522;49.622;6.126;2023-07-31T15:45:13;15.07;;;8.45;;
12908;SDS011;6522;49.622;6.126;2023-07-31T15:48:00;9.18;;;7.45;;
12908;SDS011;6522;49.622;6.126;2023-07-31T15:50:46;10.68;;;6.80;;
12908;SDS011;6522;49.622;6.126;2023-07-31T15:53:33;11.77;;;7.47;;
12908;SDS011;6522;49.622;6.126;2023-07-31T15:56:20;9.35;;;6.80;;
12908;SDS011;6522;49.622;6.126;2023-07-31T15:59:06;10.70;;;7.17;;
12908;SDS011;6522;49.622;6.126;2023-07-31T16:01:53;9.63;;;6.40;;
12908;SDS011;6522;49.622;6.126;2023-07-31T16:04:40;10.25;;;6.03;;
12908;SDS011;6522;49.622;6.126;2023-07-31T16:07:27;9.02;;;6.65;;
12908;SDS011;6522;49.622;6.126;2023-07-31T16:10:13;8.40;;;7.00;;
12908;SDS011;6522;49.622;6.126;2023-07-31T16:13:00;12.32;;;6.15;;
12908;SDS011;6522;49.622;6.126;2023-07-31T16:15:47;9.43;;;5.80;;
12908;SDS011;6522;49.622;6.126;2023-07-31T16:18:33;8.07;;;5.90;;
12908;SDS011;6522;49.622;6.126;2023-07-31T16:21:20;8.23;;;6.40;;
12908;SDS011;6522;49.622;6.126;2023-07-31T16:24:07;8.45;;;5.60;;
12908;SDS011;6522;49.622;6.126;2023-07-31T16:26:53;9.87;;;6.47;;
12908;SDS011;6522;49.622;6.126;2023-07-31T16:29:40;8.65;;;5.30;;
12908;SDS011;6522;49.622;6.126;2023-07-31T16:32:27;8.10;;;6.00;;
12908;SDS011;6522;49.622;6.126;2023-07-31T16:35:13;7.95;;;6.00;;
12908;SDS011;6522;49.622;6.126;2023-07-31T16:38:00;9.00;;;5.57;;
12908;SDS011;6522;49.622;6.126;2023-07-31T16:40:46;9.60;;;6.03;;
12908;SDS011;6522;49.622;6.126;2023-07-31T16:43:34;9.95;;;5.93;;
12908;SDS011;6522;49.622;6.126;2023-07-31T16:46:20;7.50;;;5.30;;
12908;SDS011;6522;49.622;6.126;2023-07-31T16:49:07;14.10;;;6.20;;
12908;SDS011;6522;49.622;6.126;2023-07-31T16:51:54;10.07;;;5.40;;
12908;SDS011;6522;49.622;6.126;2023-07-31T16:54:40;9.40;;;6.93;;
12908;SDS011;6522;49.622;6.126;2023-07-31T16:57:28;8.52;;;5.62;;
12908;SDS011;6522;49.622;6.126;2023-07-31T17:00:14;15.97;;;7.20;;